createdAt,value
2017-11-29T00:02:14.897Z,2.90
2017-11-29T00:04:42.444Z,2.90
2017-11-29T00:07:10.012Z,2.80
2017-11-29T00:09:37.553Z,2.80
2017-11-29T00:12:05.884Z,2.80
2017-11-29T00:14:33.420Z,2.80
2017-11-29T00:17:01.672Z,2.70
2017-11-29T00:19:29.973Z,2.70
2017-11-29T00:21:57.531Z,2.70
2017-11-29T00:24:25.075Z,2.70
2017-11-29T00:26:53.418Z,2.60
2017-11-29T00:29:20.963Z,2.60
2017-11-29T00:31:48.520Z,2.60
2017-11-29T00:34:16.056Z,2.60
2017-11-29T00:36:43.619Z,2.50
2017-11-29T00:39:11.158Z,2.50
2017-11-29T00:41:38.788Z,2.60
2017-11-29T00:44:07.092Z,2.50
2017-11-29T00:46:34.644Z,2.50
2017-11-29T00:49:02.947Z,2.50
2017-11-29T00:51:30.509Z,2.50
2017-11-29T00:53:58.037Z,2.60
2017-11-29T00:56:26.359Z,2.60
2017-11-29T00:58:53.890Z,2.50
2017-11-29T01:01:43.400Z,2.50
2017-11-29T01:04:10.937Z,2.50
2017-11-29T01:06:38.501Z,2.60
2017-11-29T01:09:06.044Z,2.60
2017-11-29T01:11:33.607Z,2.60
2017-11-29T01:14:01.141Z,2.60
2017-11-29T01:16:29.480Z,2.60
2017-11-29T01:18:57.008Z,2.60
2017-11-29T01:21:24.564Z,2.60
2017-11-29T01:23:52.112Z,2.60
2017-11-29T01:26:19.681Z,2.60
2017-11-29T01:28:47.215Z,2.60
2017-11-29T01:31:15.544Z,2.60
2017-11-29T01:33:43.088Z,2.60
2017-11-29T01:36:10.649Z,2.70
2017-11-29T01:38:38.182Z,2.70
2017-11-29T01:41:06.512Z,2.70
2017-11-29T01:43:34.058Z,2.70
2017-11-29T01:46:01.616Z,2.70
2017-11-29T01:48:29.160Z,2.70
2017-11-29T01:50:56.699Z,2.70
2017-11-29T01:53:25.028Z,2.80
2017-11-29T01:55:52.569Z,2.70
2017-11-29T01:58:20.148Z,2.80
2017-11-29T02:00:48.461Z,2.80
2017-11-29T02:03:16.787Z,2.80
2017-11-29T02:05:44.320Z,2.80
2017-11-29T02:08:11.887Z,2.80
2017-11-29T02:10:39.425Z,2.80
2017-11-29T02:13:07.762Z,2.80
2017-11-29T02:15:35.301Z,2.80
2017-11-29T02:18:02.863Z,2.80
2017-11-29T02:20:30.392Z,2.80
2017-11-29T02:22:57.951Z,2.90
2017-11-29T02:25:26.244Z,2.90
2017-11-29T02:27:53.801Z,2.90
2017-11-29T02:30:21.345Z,2.90
2017-11-29T02:32:48.946Z,2.90
2017-11-29T02:35:16.488Z,2.90
2017-11-29T02:37:44.053Z,2.90
2017-11-29T02:40:23.423Z,2.90
2017-11-29T02:42:50.981Z,2.90
2017-11-29T02:45:18.516Z,2.90
2017-11-29T02:47:46.083Z,2.90
2017-11-29T02:50:13.627Z,2.90
2017-11-29T02:52:41.175Z,3.00
2017-11-29T02:55:08.702Z,3.00
2017-11-29T02:57:37.031Z,3.00
2017-11-29T03:00:04.567Z,3.00
2017-11-29T03:02:32.124Z,3.00
2017-11-29T03:04:59.660Z,3.00
2017-11-29T03:07:27.216Z,3.00
2017-11-29T03:09:54.743Z,3.10
2017-11-29T03:12:22.310Z,3.10
2017-11-29T03:14:49.850Z,3.10
2017-11-29T03:17:17.408Z,3.10
2017-11-29T03:20:01.976Z,3.20
2017-11-29T03:22:29.528Z,3.10
2017-11-29T03:24:57.060Z,3.00
2017-11-29T03:27:24.619Z,3.10
2017-11-29T03:29:52.151Z,3.20
2017-11-29T03:32:19.717Z,3.10
2017-11-29T03:34:48.021Z,3.10
2017-11-29T03:37:15.579Z,3.00
2017-11-29T03:39:43.116Z,3.10
2017-11-29T03:42:11.439Z,3.10
2017-11-29T03:44:38.975Z,3.00
2017-11-29T03:47:06.540Z,3.00
2017-11-29T03:49:34.064Z,3.10
2017-11-29T03:52:01.633Z,3.00
2017-11-29T03:54:29.944Z,3.10
2017-11-29T03:56:57.515Z,3.10
2017-11-29T03:59:25.061Z,3.00
2017-11-29T04:01:52.620Z,3.10
2017-11-29T04:04:20.158Z,3.10
2017-11-29T04:06:48.487Z,3.10
2017-11-29T04:09:16.025Z,3.00
2017-11-29T04:11:43.610Z,3.10
2017-11-29T04:14:11.151Z,3.10
2017-11-29T04:16:38.676Z,3.10
2017-11-29T04:19:06.241Z,3.20
2017-11-29T04:21:33.781Z,3.20
2017-11-29T04:24:02.117Z,3.10
2017-11-29T04:26:29.648Z,3.10
2017-11-29T04:28:57.211Z,3.20
2017-11-29T04:31:24.742Z,3.20
2017-11-29T04:33:53.064Z,3.10
2017-11-29T04:36:20.597Z,3.10
2017-11-29T04:38:48.168Z,3.00
2017-11-29T04:41:15.705Z,3.00
2017-11-29T04:43:44.293Z,3.00
2017-11-29T04:46:11.842Z,2.90
2017-11-29T04:48:40.177Z,2.90
2017-11-29T04:51:07.713Z,2.90
2017-11-29T04:53:35.269Z,3.00
2017-11-29T04:56:02.804Z,2.90
2017-11-29T04:58:31.137Z,2.90
2017-11-29T05:00:58.680Z,2.90
2017-11-29T05:03:26.243Z,3.00
2017-11-29T05:05:53.775Z,3.00
2017-11-29T05:08:21.341Z,3.00
2017-11-29T05:10:55.300Z,3.10
2017-11-29T05:13:22.868Z,3.10
2017-11-29T05:15:50.404Z,3.00
2017-11-29T05:18:17.963Z,3.10
2017-11-29T05:20:45.500Z,3.10
2017-11-29T05:23:13.056Z,3.10
2017-11-29T05:25:40.606Z,3.00
2017-11-29T05:28:08.166Z,2.90
2017-11-29T05:30:35.709Z,2.80
2017-11-29T05:33:04.056Z,2.80
2017-11-29T05:35:31.596Z,2.80
2017-11-29T05:37:59.155Z,2.80
2017-11-29T05:40:26.703Z,2.80
2017-11-29T05:42:54.271Z,2.90
2017-11-29T05:45:21.804Z,3.00
2017-11-29T05:47:49.379Z,3.00
2017-11-29T05:50:16.937Z,3.00
2017-11-29T05:52:44.506Z,2.90
2017-11-29T05:55:12.056Z,2.90
2017-11-29T05:57:39.624Z,2.90
2017-11-29T06:00:07.167Z,2.80
2017-11-29T06:02:34.723Z,2.90
2017-11-29T06:05:02.256Z,2.90
2017-11-29T06:07:30.583Z,2.90
2017-11-29T06:09:58.116Z,2.90
2017-11-29T06:12:25.651Z,2.90
2017-11-29T06:14:54.005Z,3.10
2017-11-29T06:17:21.576Z,3.00
2017-11-29T06:19:49.153Z,3.00
2017-11-29T06:22:17.473Z,2.80
2017-11-29T06:24:45.039Z,2.80
2017-11-29T06:27:12.589Z,2.60
2017-11-29T06:29:40.171Z,2.60
2017-11-29T06:51:27.397Z,2.20
2017-11-29T06:53:54.964Z,2.20
2017-11-29T06:56:22.511Z,2.20
2017-11-29T06:58:50.078Z,2.20
2017-11-29T07:01:17.616Z,2.20
2017-11-29T07:03:45.179Z,2.10
2017-11-29T07:06:13.472Z,2.20
2017-11-29T07:08:41.050Z,2.20
2017-11-29T07:11:08.626Z,2.10
2017-11-29T07:13:36.212Z,2.10
2017-11-29T07:16:03.747Z,2.00
2017-11-29T07:18:31.308Z,1.90
2017-11-29T07:20:58.892Z,2.00
2017-11-29T07:23:26.431Z,1.80
2017-11-29T07:25:54.003Z,1.80
2017-11-29T07:28:21.564Z,1.60
2017-11-29T07:30:49.163Z,1.50
2017-11-29T07:33:16.714Z,1.60
2017-11-29T07:35:44.291Z,1.60
2017-11-29T07:38:11.826Z,1.60
2017-11-29T07:40:40.173Z,1.60
2017-11-29T07:43:07.719Z,1.60
2017-11-29T07:45:35.290Z,1.70
2017-11-29T07:48:02.862Z,1.80
2017-11-29T07:50:30.434Z,1.80
2017-11-29T07:52:58.749Z,2.00
2017-11-29T07:55:26.321Z,2.00
2017-11-29T07:57:53.869Z,2.10
2017-11-29T08:00:21.444Z,2.00
2017-11-29T08:02:48.990Z,2.00
2017-11-29T08:05:16.545Z,2.10
2017-11-29T08:07:44.089Z,2.10
2017-11-29T08:10:12.411Z,2.00
2017-11-29T08:12:39.947Z,2.00
2017-11-29T08:15:07.505Z,1.90
2017-11-29T08:17:35.087Z,1.70
2017-11-29T08:20:02.636Z,1.70
2017-11-29T08:22:30.220Z,1.70
2017-11-29T08:24:57.783Z,1.80
2017-11-29T08:27:25.364Z,1.80
2017-11-29T08:29:52.886Z,1.80
2017-11-29T08:32:20.452Z,1.80
2017-11-29T08:34:47.993Z,1.80
2017-11-29T08:37:15.548Z,1.80
2017-11-29T08:39:43.087Z,1.80
2017-11-29T08:42:10.640Z,1.80
2017-11-29T08:44:38.949Z,1.90
2017-11-29T08:47:06.510Z,1.80
2017-11-29T08:49:34.072Z,1.80
2017-11-29T08:52:01.616Z,1.90
2017-11-29T08:54:29.167Z,1.90
2017-11-29T08:56:56.729Z,1.90
2017-11-29T08:59:24.259Z,2.20
2017-11-29T09:01:52.595Z,2.10
2017-11-29T09:04:20.127Z,2.10
2017-11-29T09:06:47.685Z,2.20
2017-11-29T09:09:15.228Z,2.30
2017-11-29T09:11:43.550Z,2.10
2017-11-29T09:14:11.090Z,2.10
2017-11-29T09:16:38.627Z,2.10
2017-11-29T09:19:06.956Z,1.90
2017-11-29T09:21:34.500Z,1.90
2017-11-29T09:24:02.060Z,2.10
2017-11-29T09:26:29.585Z,2.20
2017-11-29T09:28:57.907Z,1.90
2017-11-29T09:31:25.439Z,1.90
2017-11-29T09:33:53.012Z,2.10
2017-11-29T09:36:20.566Z,2.00
2017-11-29T09:38:48.137Z,1.90
2017-11-29T09:41:15.685Z,2.00
2017-11-29T09:43:43.252Z,2.00
2017-11-29T09:46:10.788Z,2.00
2017-11-29T09:48:38.353Z,2.00
2017-11-29T09:51:05.879Z,2.20
2017-11-29T09:53:33.434Z,2.10
2017-11-29T09:56:00.964Z,2.10
2017-11-29T09:58:28.528Z,2.20
2017-11-29T10:00:56.067Z,2.10
2017-11-29T10:03:23.617Z,2.20
2017-11-29T10:05:51.150Z,2.30
2017-11-29T10:08:19.473Z,2.40
2017-11-29T10:10:47.000Z,2.40
2017-11-29T10:13:14.568Z,2.50
2017-11-29T10:15:42.100Z,2.50
2017-11-29T10:18:10.426Z,2.70
2017-11-29T10:20:37.987Z,2.60
2017-11-29T10:23:05.524Z,2.70
2017-11-29T10:25:33.090Z,2.50
2017-11-29T10:28:00.623Z,2.40
2017-11-29T10:30:28.964Z,2.50
2017-11-29T10:32:56.502Z,2.50
2017-11-29T10:35:24.060Z,2.50
2017-11-29T10:37:51.584Z,2.60
2017-11-29T10:40:19.144Z,2.40
2017-11-29T10:42:46.692Z,2.50
2017-11-29T10:45:15.009Z,2.50
2017-11-29T10:47:42.535Z,2.50
2017-11-29T10:50:10.860Z,2.70
2017-11-29T10:52:38.672Z,2.60
2017-11-29T10:55:06.991Z,2.60
2017-11-29T10:57:34.539Z,2.50
2017-11-29T11:00:02.100Z,2.80
2017-11-29T11:02:29.647Z,2.90
2017-11-29T11:04:57.200Z,3.10
2017-11-29T11:07:25.499Z,3.00
2017-11-29T11:09:53.067Z,3.00
2017-11-29T11:12:20.603Z,3.10
2017-11-29T11:14:48.196Z,3.10
2017-11-29T11:17:15.732Z,3.20
2017-11-29T11:19:43.284Z,3.20
2017-11-29T11:22:11.579Z,3.40
2017-11-29T11:24:39.154Z,3.40
2017-11-29T11:27:06.694Z,3.50
2017-11-29T11:29:34.252Z,3.30
2017-11-29T11:32:01.777Z,3.20
2017-11-29T11:34:30.096Z,3.10
2017-11-29T11:36:57.636Z,3.10
2017-11-29T11:39:25.204Z,3.10
2017-11-29T11:41:52.740Z,3.10
2017-11-29T11:44:21.074Z,3.30
2017-11-29T11:46:48.603Z,3.30
2017-11-29T11:49:16.160Z,3.40
2017-11-29T11:51:43.696Z,3.40
2017-11-29T11:54:12.028Z,3.80
2017-11-29T11:56:39.574Z,3.70
2017-11-29T11:59:07.132Z,4.00
2017-11-29T12:01:34.664Z,4.10
2017-11-29T12:04:02.244Z,4.20
2017-11-29T12:06:29.777Z,4.00
2017-11-29T12:08:58.105Z,4.00
2017-11-29T12:11:25.635Z,4.00
2017-11-29T12:13:53.187Z,3.70
2017-11-29T12:16:20.724Z,3.50
2017-11-29T12:18:49.066Z,3.20
2017-11-29T12:21:16.589Z,3.10
2017-11-29T12:23:44.138Z,3.20
2017-11-29T12:26:11.717Z,3.00
2017-11-29T12:28:39.248Z,3.00
2017-11-29T12:31:07.565Z,3.00
2017-11-29T12:33:35.100Z,3.00
2017-11-29T12:36:02.669Z,3.20
2017-11-29T12:38:30.209Z,3.40
2017-11-29T12:40:58.535Z,3.70
2017-11-29T12:43:26.082Z,3.70
2017-11-29T12:45:53.638Z,3.80
2017-11-29T12:48:32.915Z,3.80
2017-11-29T12:51:08.162Z,3.70
2017-11-29T12:53:36.472Z,3.70
2017-11-29T12:56:04.049Z,3.70
2017-11-29T12:58:31.588Z,3.60
2017-11-29T13:00:59.154Z,3.80
2017-11-29T13:03:26.719Z,3.70
2017-11-29T13:05:54.289Z,3.60
2017-11-29T13:08:21.856Z,3.50
2017-11-29T13:10:49.437Z,3.50
2017-11-29T13:13:16.994Z,3.50
2017-11-29T13:15:44.566Z,3.50
2017-11-29T13:18:12.108Z,3.60
2017-11-29T13:20:39.687Z,3.60
2017-11-29T13:23:07.238Z,3.60
2017-11-29T13:25:35.572Z,3.70
2017-11-29T13:28:03.109Z,3.70
2017-11-29T13:30:31.447Z,3.80
2017-11-29T13:32:58.988Z,3.80
2017-11-29T13:35:26.556Z,3.90
2017-11-29T13:37:54.109Z,4.00
2017-11-29T13:40:21.689Z,4.20
2017-11-29T13:42:49.228Z,4.40
2017-11-29T13:45:16.787Z,4.50
2017-11-29T13:47:44.335Z,4.40
2017-11-29T13:50:11.899Z,4.20
2017-11-29T13:52:39.446Z,3.90
2017-11-29T13:55:07.017Z,3.70
2017-11-29T13:57:34.548Z,3.70
2017-11-29T14:00:02.881Z,3.70
2017-11-29T14:02:30.419Z,3.70
2017-11-29T14:04:57.999Z,3.70
2017-11-29T14:07:25.534Z,3.70
2017-11-29T14:09:53.113Z,3.70
2017-11-29T14:12:20.655Z,3.80
2017-11-29T14:14:48.217Z,3.80
2017-11-29T14:17:15.766Z,3.80
2017-11-29T14:19:43.343Z,3.70
2017-11-29T14:22:10.903Z,3.60
2017-11-29T14:24:38.457Z,3.60
2017-11-29T14:27:06.768Z,3.90
2017-11-29T14:29:34.363Z,3.90
2017-11-29T14:32:02.685Z,3.90
2017-11-29T14:34:30.279Z,3.90
2017-11-29T14:36:57.855Z,3.90
2017-11-29T14:39:26.175Z,3.60
2017-11-29T14:41:53.773Z,3.60
2017-11-29T14:44:21.333Z,3.50
2017-11-29T14:46:48.884Z,3.40
2017-11-29T14:49:16.464Z,3.40
2017-11-29T14:51:44.031Z,3.20
2017-11-29T14:54:12.373Z,2.90
2017-11-29T14:56:39.937Z,2.90
2017-11-29T14:59:07.489Z,2.90
2017-11-29T15:01:35.068Z,2.80
2017-11-29T15:04:02.632Z,2.80
2017-11-29T15:06:30.227Z,2.70
2017-11-29T15:08:57.782Z,2.60
2017-11-29T15:11:25.390Z,2.50
2017-11-29T15:13:52.943Z,2.50
2017-11-29T15:16:20.519Z,2.40
2017-11-29T15:18:48.110Z,2.30
2017-11-29T15:21:15.688Z,2.20
2017-11-29T15:23:44.056Z,2.20
2017-11-29T15:26:12.403Z,2.10
2017-11-29T15:28:39.995Z,2.10
2017-11-29T15:31:08.298Z,2.10
2017-11-29T15:33:35.876Z,2.00
2017-11-29T15:36:03.423Z,2.00
2017-11-29T15:38:30.982Z,1.90
2017-11-29T15:40:58.534Z,1.90
2017-11-29T15:43:26.104Z,1.90
2017-11-29T15:45:53.655Z,1.80
2017-11-29T15:48:21.223Z,1.70
2017-11-29T15:50:48.792Z,1.70
2017-11-29T15:53:16.364Z,1.70
2017-11-29T15:55:43.906Z,1.70
2017-11-29T15:58:11.495Z,1.70
2017-11-29T16:00:39.033Z,1.70
2017-11-29T16:03:06.592Z,1.80
2017-11-29T16:05:34.118Z,1.80
2017-11-29T16:08:02.448Z,1.80
2017-11-29T16:10:29.985Z,1.80
2017-11-29T16:12:57.540Z,1.90
2017-11-29T16:15:25.071Z,1.90
2017-11-29T16:17:53.411Z,1.90
2017-11-29T16:20:20.945Z,1.90
2017-11-29T16:22:48.481Z,1.90
2017-11-29T16:25:16.040Z,1.90
2017-11-29T16:27:43.572Z,1.80
2017-11-29T16:30:11.133Z,1.80
2017-11-29T16:32:39.433Z,1.80
2017-11-29T16:35:06.996Z,1.80
2017-11-29T16:37:34.530Z,1.80
2017-11-29T16:40:02.092Z,1.80
2017-11-29T16:42:30.384Z,1.90
2017-11-29T16:44:58.704Z,1.90
2017-11-29T16:47:27.484Z,1.90
2017-11-29T16:49:55.675Z,1.90
2017-11-29T16:52:23.743Z,2.00
2017-11-29T16:54:51.326Z,2.10
2017-11-29T16:57:18.855Z,2.20
2017-11-29T16:59:46.404Z,2.10
2017-11-29T17:02:13.948Z,2.10
2017-11-29T17:04:41.510Z,2.10
2017-11-29T17:07:09.038Z,1.90
2017-11-29T17:09:36.594Z,1.90
2017-11-29T17:12:04.119Z,1.90
2017-11-29T17:14:31.685Z,1.80
2017-11-29T17:16:59.226Z,1.80
2017-11-29T17:19:26.804Z,1.70
2017-11-29T17:21:55.112Z,1.70
2017-11-29T17:24:22.641Z,1.70
2017-11-29T17:26:50.208Z,1.70
2017-11-29T17:29:17.743Z,1.70
2017-11-29T17:31:45.303Z,1.80
2017-11-29T17:34:12.837Z,1.80
2017-11-29T17:36:40.409Z,1.70
2017-11-29T17:39:07.945Z,1.80
2017-11-29T17:41:35.512Z,1.80
2017-11-29T17:44:03.804Z,1.70
2017-11-29T17:46:31.355Z,1.70
2017-11-29T17:48:58.885Z,1.70
2017-11-29T17:51:26.454Z,1.80
2017-11-29T17:53:54.752Z,1.80
2017-11-29T17:56:22.312Z,1.80
2017-11-29T17:58:49.844Z,1.90
2017-11-29T18:01:18.166Z,1.90
2017-11-29T18:03:45.696Z,1.80
2017-11-29T18:06:14.023Z,1.90
2017-11-29T18:08:41.552Z,1.90
2017-11-29T18:11:09.109Z,1.90
2017-11-29T18:13:36.649Z,1.90
2017-11-29T18:16:04.972Z,1.90
2017-11-29T18:18:32.504Z,1.90
2017-11-29T18:21:00.064Z,1.80
2017-11-29T18:23:27.610Z,1.80
2017-11-29T18:25:55.180Z,1.80
2017-11-29T18:28:22.712Z,1.80
2017-11-29T18:30:50.276Z,1.80
2017-11-29T18:33:18.572Z,1.80
2017-11-29T18:35:46.891Z,1.80
2017-11-29T18:38:14.419Z,1.80
2017-11-29T18:40:41.972Z,1.80
2017-11-29T18:43:09.513Z,1.80
2017-11-29T18:45:37.838Z,1.90
2017-11-29T18:48:05.369Z,1.90
2017-11-29T18:50:33.030Z,1.80
2017-11-29T18:53:00.632Z,1.80
2017-11-29T18:55:28.310Z,1.70
2017-11-29T18:57:56.740Z,1.80
2017-11-29T19:00:24.331Z,1.70
2017-11-29T19:02:51.944Z,1.70
2017-11-29T19:05:19.554Z,1.70
2017-11-29T19:07:47.199Z,1.70
2017-11-29T19:10:14.800Z,1.70
2017-11-29T19:12:42.390Z,1.80
2017-11-29T19:15:10.724Z,1.80
2017-11-29T19:17:38.327Z,1.80
2017-11-29T19:20:06.694Z,1.80
2017-11-29T19:22:35.043Z,1.80
2017-11-29T19:25:02.629Z,1.80
2017-11-29T19:27:30.986Z,1.80
2017-11-29T19:29:58.612Z,1.80
2017-11-29T19:32:26.231Z,1.80
2017-11-29T19:34:54.641Z,1.80
2017-11-29T19:37:22.300Z,1.80
2017-11-29T19:39:49.912Z,1.80
2017-11-29T19:42:17.591Z,1.90
2017-11-29T19:44:45.183Z,1.90
2017-11-29T19:47:12.827Z,1.90
2017-11-29T19:49:41.173Z,1.90
2017-11-29T19:52:08.807Z,1.90
2017-11-29T19:54:36.446Z,1.90
2017-11-29T19:57:04.087Z,1.90
2017-11-29T19:59:32.489Z,1.90
2017-11-29T20:02:00.078Z,1.90
2017-11-29T20:04:27.717Z,1.90
2017-11-29T20:06:55.317Z,2.00
2017-11-29T20:09:22.905Z,2.10
2017-11-29T20:11:51.293Z,2.10
2017-11-29T20:14:19.638Z,2.20
2017-11-29T20:16:47.264Z,2.10
2017-11-29T20:19:14.885Z,2.10
2017-11-29T20:21:43.289Z,2.30
2017-11-29T20:24:10.869Z,2.20
2017-11-29T20:26:38.468Z,2.20
2017-11-29T20:29:06.079Z,2.10
2017-11-29T20:31:33.658Z,2.10
2017-11-29T20:34:01.255Z,2.10
2017-11-29T20:36:29.631Z,2.10
2017-11-29T20:38:57.272Z,2.10
2017-11-29T20:41:24.835Z,2.10
2017-11-29T20:43:52.418Z,2.10
2017-11-29T20:46:19.971Z,2.10
2017-11-29T20:48:47.544Z,2.10
2017-11-29T20:51:15.086Z,2.10
2017-11-29T20:53:42.657Z,2.20
2017-11-29T20:56:10.225Z,2.20
2017-11-29T20:58:37.804Z,2.20
2017-11-29T21:01:05.356Z,2.20
2017-11-29T21:03:33.700Z,2.20
2017-11-29T21:06:01.265Z,2.20
2017-11-29T21:08:28.851Z,2.20
2017-11-29T21:10:57.210Z,2.20
2017-11-29T21:13:24.819Z,2.10
2017-11-29T21:15:52.400Z,2.10
2017-11-29T21:18:19.987Z,2.10
2017-11-29T21:20:47.537Z,2.20
2017-11-29T21:23:15.107Z,2.20
2017-11-29T21:25:42.642Z,2.20
2017-11-29T21:28:10.216Z,2.20
2017-11-29T21:30:37.765Z,2.20
2017-11-29T21:33:05.401Z,2.20
2017-11-29T21:35:32.961Z,2.10
2017-11-29T21:38:00.554Z,2.20
2017-11-29T21:40:28.091Z,2.30
2017-11-29T21:42:55.657Z,2.20
2017-11-29T21:45:23.974Z,2.10
2017-11-29T21:47:51.603Z,2.00
2017-11-29T21:50:19.164Z,2.20
2017-11-29T21:52:46.755Z,2.20
2017-11-29T21:55:14.354Z,2.30
2017-11-29T21:57:44.152Z,2.20
2017-11-29T22:00:12.574Z,2.10
2017-11-29T22:02:40.199Z,2.00
2017-11-29T22:05:07.746Z,2.10
2017-11-29T22:07:36.102Z,2.20
2017-11-29T22:10:03.680Z,2.20
2017-11-29T22:12:31.240Z,2.20
2017-11-29T22:14:58.834Z,2.20
2017-11-29T22:17:26.531Z,2.20
2017-11-29T22:19:54.129Z,2.20
2017-11-29T22:25:16.539Z,2.20
2017-11-29T22:27:44.102Z,2.20
2017-11-29T22:30:11.637Z,2.20
2017-11-29T22:32:39.335Z,2.20
2017-11-29T22:35:06.864Z,2.10
2017-11-29T22:37:34.458Z,2.20
2017-11-29T22:40:02.084Z,2.20
2017-11-29T22:42:29.610Z,2.20
2017-11-29T22:44:57.175Z,2.10
2017-11-29T22:47:25.484Z,2.30
2017-11-29T22:49:53.199Z,2.30
2017-11-29T22:52:20.742Z,2.30
2017-11-29T22:54:48.308Z,2.20
2017-11-29T22:57:15.858Z,2.20
2017-11-29T22:59:43.425Z,2.20
2017-11-29T23:02:10.968Z,2.30
2017-11-29T23:04:38.523Z,2.20
2017-11-29T23:07:06.057Z,2.10
2017-11-29T23:09:33.620Z,2.10
2017-11-29T23:12:01.157Z,2.10
2017-11-29T23:14:29.482Z,2.00
2017-11-29T23:16:57.016Z,2.00
2017-11-29T23:19:24.579Z,1.90
2017-11-29T23:21:52.126Z,1.90
2017-11-29T23:24:20.447Z,1.90
2017-11-29T23:26:47.977Z,1.80
2017-11-29T23:29:15.528Z,1.80
2017-11-29T23:31:43.068Z,1.80
2017-11-29T23:34:11.419Z,1.70
2017-11-29T23:36:38.979Z,1.70
2017-11-29T23:39:06.557Z,1.70
2017-11-29T23:41:34.877Z,1.80
2017-11-29T23:44:02.426Z,1.70
2017-11-29T23:46:29.961Z,1.70
2017-11-29T23:48:58.286Z,1.60
2017-11-29T23:51:25.819Z,1.60
2017-11-29T23:53:53.376Z,1.50
2017-11-29T23:56:20.912Z,1.50
2017-11-29T23:58:48.469Z,1.40
